Salcha, AK (99714)

10:52 PM AKDT on July 28, 2014 (GMT -0800)
Allen Army Air Field (PABI) Elev 1306 ft | 63.99 °N, 145.72 °W | Change Station

Current weather conditions updated 59 minutes ago

Overcast
Overcast
56 °F
Feels Like 56 °F
N
10
Wind Variable Wind from WSW

Tomorrow is forecast to be Cooler than today.

Today
High -- | Low -- °F
--% Chance of Precip.
Yesterday
High -- | Low -- °F
Precip. -- in
4:30 AM 11:04 PM
Waxing Crescent, 5% visible
Pressure 30.06 in
Visibility 10.0 miles
Clouds Mostly Cloudy 7000 ft
Overcast 9000 ft
Dew Point 48 °F
Humidity 75%
Rainfall 0.00 in
Snow Depth 1 in
UV 0 out of 12
Pollen Not available.
Air Quality Not available.
Flu Activity Not available.
METAR PABI 290553Z AUTO 24009KT 10SM BKN070 OVC090 13/09 A3003 RMK AO2 SLP177 T01330089 10172 20133 53008 TSNO

More Conditions Fewer Conditions

Pressure 30.06 in
Visibility 10.0 miles
Clouds Mostly Cloudy 7000 ft
Overcast 9000 ft
Dew Point 48 °F
Humidity 75%
Rainfall 0.00 in
Snow Depth 1 in
UV 0 out of 12
Pollen Not available.
Air Quality Not available.
Flu Activity Not available.
METAR PABI 290553Z AUTO 24009KT 10SM BKN070 OVC090 13/09 A3003 RMK AO2 SLP177 T01330089 10172 20133 53008 TSNO

More Conditions Fewer Conditions

10-Day Weather Forecast

Almanac

Astronomy

Jul. 28, 2014 Rise Set
Actual Time 4:30 AM AKDT 11:04 PM AKDT
Civil Twilight 2:27 AM AKDT 12:58 AM AKDT
Nautical Twilight Sun does not rise Sun does not rise
Astronomical Twilight Sun does not rise Sun does not rise
Moon 7:35 AM AKDT (7/28) 10:25 PM AKDT (7/28)
Length of Visible Light 22h 31m
Length of Day
18h 34m
Tomorrow will be 6m 51s shorter.
Waxing Crescent, 5% of the Moon is Illuminated
Jul 29
Waxing Crescent
Aug 3
First Quarter
Aug 10
Full
Aug 17
Last Quarter
Aug 25
New

Community

WunderPhotos

Upload Photos

1,738,651 photos uploaded!

Nearby

Snow Depth

Station Depth Elevation
Munson Ridge 1 in 3100 ft
Monument Creek 0 in 1850 ft
Upper Chena 6 in 2850 ft
Little Chena Ridge 1 in 2000 ft
Eagle Summit 1 in 3650 ft

Earthquake Activity

City Distance Mag. Time & Date
No recent earthquake activity has been reported nearby.
Minimum magnitude displayed is 2.5.

Coastal Water Temperatures

Place Temperature
No Stations Reporting

Nearby Weather Stations

Station Location Temp. Dew Point Humidity Wind Precip. Elev Updated Type
RAWS SALCHA AK, Salcha, AK 59 °F 45 °F 59% ENE  at  2 mph 0.00 in / hr 1000 ft 9:52 PM AKDT MADIS

Show More Stations Show Fewer Stations